createdAt,value
2022-12-06T06:26:36.478Z,1.63
2022-12-06T06:29:08.765Z,2.03
2022-12-06T06:31:48.227Z,2.13
2022-12-06T06:34:26.948Z,2.20
2022-12-06T06:37:02.399Z,1.90
2022-12-06T06:39:33.638Z,1.87
2022-12-06T06:42:05.142Z,1.90
2022-12-06T06:44:42.145Z,2.17
2022-12-06T06:47:10.597Z,1.80
2022-12-06T06:49:45.127Z,2.30
2022-12-06T06:52:20.159Z,1.93
2022-12-06T06:54:48.647Z,1.90
2022-12-06T06:57:19.108Z,2.83
2022-12-06T07:00:02.772Z,2.10
2022-12-06T07:02:35.438Z,1.90
2022-12-06T07:05:09.846Z,2.80
2022-12-06T07:07:43.080Z,2.60
2022-12-06T07:10:30.062Z,2.37
2022-12-06T07:13:04.726Z,2.30
2022-12-06T07:15:38.636Z,2.40
2022-12-06T07:18:10.136Z,2.53
2022-12-06T07:20:40.877Z,2.57
2022-12-06T07:23:12.664Z,3.37
2022-12-06T07:25:44.841Z,2.70
2022-12-06T07:28:28.856Z,3.20
2022-12-06T07:30:59.449Z,2.83
2022-12-06T07:33:32.219Z,2.20
2022-12-06T07:36:11.944Z,2.37
2022-12-06T07:38:42.921Z,2.30
2022-12-06T07:41:26.378Z,2.60
2022-12-06T07:44:21.165Z,2.13
2022-12-06T07:46:58.708Z,2.20
2022-12-06T07:49:33.183Z,2.47
2022-12-06T07:52:01.615Z,2.87
2022-12-06T07:54:30.050Z,2.70
2022-12-06T07:57:04.145Z,2.80
2022-12-06T07:59:37.158Z,3.20
2022-12-06T08:02:10.160Z,2.27
2022-12-06T08:04:44.413Z,1.90
2022-12-06T08:07:15.616Z,3.23
2022-12-06T08:09:54.915Z,2.63
2022-12-06T08:12:34.741Z,2.63
2022-12-06T08:15:13.175Z,2.77
2022-12-06T08:17:43.288Z,3.67
2022-12-06T08:20:16.971Z,3.13
2022-12-06T08:22:53.665Z,2.83
2022-12-06T08:25:27.579Z,2.63
2022-12-06T08:28:00.686Z,2.73
2022-12-06T08:30:45.549Z,2.93
2022-12-06T08:33:26.583Z,3.30
2022-12-06T08:35:54.965Z,2.33
2022-12-06T08:38:34.653Z,2.60
2022-12-06T08:41:12.381Z,2.90
2022-12-06T08:43:43.681Z,2.60
2022-12-06T08:46:13.627Z,2.77
2022-12-06T08:48:52.694Z,3.03
2022-12-06T08:51:29.767Z,3.47
2022-12-06T08:54:14.446Z,2.73
2022-12-06T08:56:42.911Z,2.87
2022-12-06T08:59:25.803Z,2.53
2022-12-06T09:01:58.221Z,3.10
2022-12-06T09:04:32.708Z,2.50
2022-12-06T09:07:21.145Z,4.50
2022-12-06T09:10:01.393Z,3.30
2022-12-06T09:12:38.492Z,3.10
2022-12-06T09:15:28.167Z,3.33
2022-12-06T09:18:02.182Z,2.93
2022-12-06T09:20:36.412Z,3.27
2022-12-06T09:23:15.646Z,2.93
2022-12-06T09:25:56.419Z,3.00
2022-12-06T09:28:36.192Z,2.33
2022-12-06T09:31:38.409Z,2.27
2022-12-06T09:34:19.912Z,2.30
2022-12-06T09:36:59.536Z,2.47
2022-12-06T09:39:39.039Z,2.17
2022-12-06T09:42:55.303Z,2.60
2022-12-06T09:46:31.033Z,2.00
2022-12-06T09:49:26.232Z,1.70
2022-12-06T09:52:30.985Z,1.60
2022-12-06T09:55:10.197Z,1.83
2022-12-06T09:57:44.181Z,1.93
2022-12-06T10:00:22.125Z,1.70
2022-12-06T10:03:40.879Z,1.93
2022-12-06T10:06:33.792Z,1.67
2022-12-06T10:09:20.589Z,1.70
2022-12-06T10:12:09.976Z,1.67
2022-12-06T10:14:58.408Z,2.03
2022-12-06T10:17:40.305Z,1.67
2022-12-06T10:20:41.574Z,1.43
2022-12-06T10:23:31.282Z,2.03
2022-12-06T10:26:18.424Z,1.47
2022-12-06T10:28:55.381Z,1.30
2022-12-06T10:32:00.077Z,1.50
2022-12-06T10:34:50.468Z,1.10
2022-12-06T10:37:36.512Z,1.20
2022-12-06T10:40:19.823Z,1.07
2022-12-06T10:42:54.363Z,1.33
2022-12-06T10:46:10.345Z,1.23
2022-12-06T10:49:29.221Z,1.73
2022-12-06T10:52:20.068Z,1.00
2022-12-06T10:58:50.906Z,2.83
2022-12-06T11:05:22.867Z,1.47
2022-12-06T11:12:01.897Z,1.10
2022-12-06T11:19:28.775Z,1.20
2022-12-06T11:36:35.857Z,0.90
2022-12-06T11:54:48.811Z,0.90
2022-12-06T12:01:35.353Z,1.20
2022-12-06T12:08:54.201Z,0.60
2022-12-06T12:12:15.605Z,0.73
2022-12-06T12:15:56.233Z,1.63
2022-12-06T12:23:05.005Z,0.83
2022-12-06T12:37:32.067Z,0.50
2022-12-06T12:42:13.879Z,0.33
2022-12-06T12:51:35.023Z,0.40
2022-12-06T12:54:37.754Z,0.20
2022-12-06T12:58:23.915Z,0.40
2022-12-06T13:09:19.030Z,0.73
2022-12-06T13:12:44.673Z,0.30
2022-12-06T13:15:47.574Z,0.20
2022-12-06T13:19:51.702Z,0.43
2022-12-06T13:22:50.073Z,0.40
2022-12-06T13:33:44.702Z,0.30
2022-12-06T13:52:14.581Z,0.60
2022-12-06T13:59:58.303Z,0.50
2022-12-06T14:04:17.552Z,0.40
2022-12-06T14:11:52.198Z,0.40
2022-12-06T14:18:45.882Z,0.57
2022-12-06T14:25:30.229Z,0.70
2022-12-06T14:32:29.436Z,0.40
2022-12-06T14:35:54.697Z,0.70
2022-12-06T14:39:10.757Z,1.07
2022-12-06T14:42:33.413Z,1.00
2022-12-06T14:46:00.675Z,0.70
2022-12-06T14:49:16.302Z,1.03
2022-12-06T14:53:01.279Z,0.50
2022-12-06T15:06:38.740Z,0.60
2022-12-06T15:09:26.628Z,0.97
2022-12-06T15:12:26.514Z,0.60
2022-12-06T15:16:35.319Z,0.47
2022-12-06T15:19:25.324Z,0.70
2022-12-06T15:22:04.355Z,1.20
2022-12-06T15:24:55.671Z,1.40
2022-12-06T15:27:47.771Z,1.60
2022-12-06T15:33:54.901Z,1.30
2022-12-06T15:36:40.077Z,0.77
2022-12-06T15:39:42.592Z,0.50
2022-12-06T15:45:13.242Z,0.40
2022-12-06T15:47:43.741Z,0.30
2022-12-06T15:50:37.479Z,0.53
2022-12-06T15:53:45.856Z,1.27
2022-12-06T15:56:31.650Z,0.77
2022-12-06T16:06:57.858Z,1.37
2022-12-06T16:25:02.376Z,1.10
2022-12-06T16:27:34.116Z,1.13
2022-12-06T16:30:10.354Z,1.87
2022-12-06T16:32:51.619Z,3.40
2022-12-06T16:35:24.646Z,7.17
2022-12-06T16:38:04.417Z,5.40
2022-12-06T16:40:53.442Z,6.27
2022-12-06T16:43:38.218Z,5.57
2022-12-06T16:46:46.714Z,6.47
2022-12-06T16:53:06.244Z,3.97
2022-12-06T16:55:43.627Z,3.87
2022-12-06T16:58:23.350Z,3.30
2022-12-06T17:01:01.422Z,2.57
2022-12-06T17:03:34.283Z,3.43
2022-12-06T17:06:18.897Z,4.53
2022-12-06T17:08:56.002Z,4.27
2022-12-06T17:11:48.352Z,3.23
2022-12-06T17:14:33.085Z,3.27
2022-12-06T17:17:09.171Z,3.23
2022-12-06T17:20:24.049Z,2.87
2022-12-06T17:23:02.228Z,3.03
2022-12-06T17:25:31.857Z,2.77
2022-12-06T17:28:31.847Z,2.40
2022-12-06T17:31:08.562Z,2.40
2022-12-06T17:33:42.774Z,5.40
2022-12-06T17:36:28.413Z,3.80
2022-12-06T17:39:23.708Z,3.50
2022-12-06T17:42:29.138Z,2.00
2022-12-06T17:59:46.943Z,1.90
2022-12-06T18:03:19.862Z,1.50
2022-12-06T18:09:17.828Z,2.33
2022-12-06T18:12:18.489Z,1.53
2022-12-06T18:15:56.638Z,1.97
2022-12-06T18:19:23.234Z,2.40
2022-12-06T18:22:20.466Z,1.97
2022-12-06T18:24:58.160Z,2.17
2022-12-06T18:27:29.605Z,2.40
2022-12-06T18:30:14.757Z,3.60
2022-12-06T18:32:43.497Z,3.13
2022-12-06T18:35:16.027Z,4.40
2022-12-06T18:37:47.168Z,6.40
2022-12-06T18:40:20.469Z,4.93
2022-12-06T18:43:03.476Z,5.57
2022-12-06T18:45:41.949Z,4.03
2022-12-06T18:48:11.404Z,2.60
2022-12-06T18:50:46.241Z,3.63
2022-12-06T18:53:24.224Z,3.77
2022-12-06T18:55:55.703Z,2.40
2022-12-06T18:58:46.277Z,2.87
2022-12-06T19:01:20.740Z,3.60
2022-12-06T19:03:55.385Z,3.30
2022-12-06T19:06:56.799Z,2.87
2022-12-06T19:09:40.905Z,3.00
2022-12-06T19:12:16.243Z,2.53
2022-12-06T19:14:49.926Z,3.03
2022-12-06T19:17:20.243Z,2.67
2022-12-06T19:19:54.611Z,4.67
2022-12-06T19:22:34.763Z,3.17
2022-12-06T19:25:18.115Z,9.60
2022-12-06T19:27:55.914Z,4.60
2022-12-06T19:30:37.907Z,3.87
2022-12-06T19:33:22.291Z,4.50
2022-12-06T19:36:08.279Z,3.57
2022-12-06T19:38:50.218Z,3.53
2022-12-06T19:41:34.297Z,4.30
2022-12-06T19:44:18.707Z,5.20
2022-12-06T19:47:16.137Z,5.27
2022-12-06T19:49:57.383Z,3.20
2022-12-06T19:53:19.715Z,3.13
2022-12-06T19:55:59.450Z,3.07
2022-12-06T19:58:56.558Z,2.13
2022-12-06T20:02:20.871Z,3.13
2022-12-06T20:05:45.282Z,2.73
2022-12-06T20:08:58.093Z,1.87
2022-12-06T21:18:28.473Z,1.00
2022-12-06T23:56:47.849Z,2.50
